sensor_id;sensor_type;location;lat;lon;timestamp;P1;durP1;ratioP1;P2;durP2;ratioP2
26696;SDS011;14312;52.614;13.496;2023-11-22T08:27:45;5.53;;;3.58;;
26696;SDS011;14312;52.614;13.496;2023-11-22T08:30:31;5.95;;;4.50;;
26696;SDS011;14312;52.614;13.496;2023-11-22T08:33:21;8.00;;;5.28;;
26696;SDS011;14312;52.614;13.496;2023-11-22T08:36:08;7.47;;;5.22;;
26696;SDS011;14312;52.614;13.496;2023-11-22T08:38:55;7.43;;;6.22;;
26696;SDS011;14312;52.614;13.496;2023-11-22T08:41:41;7.78;;;6.20;;
26696;SDS011;14312;52.614;13.496;2023-11-22T08:44:26;7.28;;;6.13;;
26696;SDS011;14312;52.614;13.496;2023-11-22T08:47:13;8.52;;;6.68;;
26696;SDS011;14312;52.614;13.496;2023-11-22T08:49:59;7.25;;;5.70;;
26696;SDS011;14312;52.614;13.496;2023-11-22T08:52:45;6.68;;;6.00;;
26696;SDS011;14312;52.614;13.496;2023-11-22T08:55:32;6.43;;;5.75;;
26696;SDS011;14312;52.614;13.496;2023-11-22T08:58:19;6.40;;;5.47;;
26696;SDS011;14312;52.614;13.496;2023-11-22T09:01:06;6.85;;;5.50;;
26696;SDS011;14312;52.614;13.496;2023-11-22T09:03:52;5.75;;;5.15;;
26696;SDS011;14312;52.614;13.496;2023-11-22T09:06:39;6.43;;;5.13;;
26696;SDS011;14312;52.614;13.496;2023-11-22T09:09:25;5.53;;;5.00;;
26696;SDS011;14312;52.614;13.496;2023-11-22T09:12:16;4.95;;;4.32;;
26696;SDS011;14312;52.614;13.496;2023-11-22T09:15:05;5.30;;;4.80;;
26696;SDS011;14312;52.614;13.496;2023-11-22T09:17:56;5.00;;;4.28;;
26696;SDS011;14312;52.614;13.496;2023-11-22T09:20:45;5.15;;;4.13;;
26696;SDS011;14312;52.614;13.496;2023-11-22T09:23:31;4.95;;;4.30;;
26696;SDS011;14312;52.614;13.496;2023-11-22T09:26:17;4.97;;;4.43;;
26696;SDS011;14312;52.614;13.496;2023-11-22T09:29:03;5.60;;;4.57;;
26696;SDS011;14312;52.614;13.496;2023-11-22T09:31:50;4.45;;;4.03;;
26696;SDS011;14312;52.614;13.496;2023-11-22T09:34:37;5.13;;;4.50;;
26696;SDS011;14312;52.614;13.496;2023-11-22T09:37:23;4.75;;;4.25;;
26696;SDS011;14312;52.614;13.496;2023-11-22T09:40:11;4.55;;;4.10;;
26696;SDS011;14312;52.614;13.496;2023-11-22T09:42:59;4.93;;;4.13;;
26696;SDS011;14312;52.614;13.496;2023-11-22T09:45:50;4.50;;;4.07;;
26696;SDS011;14312;52.614;13.496;2023-11-22T09:48:40;5.05;;;4.55;;
26696;SDS011;14312;52.614;13.496;2023-11-22T09:51:28;5.50;;;4.43;;
26696;SDS011;14312;52.614;13.496;2023-11-22T09:54:15;4.90;;;4.10;;
26696;SDS011;14312;52.614;13.496;2023-11-22T09:57:03;4.65;;;4.20;;
26696;SDS011;14312;52.614;13.496;2023-11-22T09:59:54;4.75;;;4.20;;
26696;SDS011;14312;52.614;13.496;2023-11-22T10:02:43;5.00;;;4.50;;
26696;SDS011;14312;52.614;13.496;2023-11-22T10:05:30;5.55;;;4.43;;
26696;SDS011;14312;52.614;13.496;2023-11-22T10:08:16;5.05;;;4.28;;
26696;SDS011;14312;52.614;13.496;2023-11-22T10:11:04;5.10;;;4.10;;
26696;SDS011;14312;52.614;13.496;2023-11-22T10:13:51;4.68;;;4.20;;
26696;SDS011;14312;52.614;13.496;2023-11-22T10:16:37;5.75;;;4.65;;
26696;SDS011;14312;52.614;13.496;2023-11-22T10:19:24;5.18;;;4.68;;
26696;SDS011;14312;52.614;13.496;2023-11-22T10:22:10;4.47;;;4.03;;
26696;SDS011;14312;52.614;13.496;2023-11-22T10:25:01;5.28;;;4.30;;
26696;SDS011;14312;52.614;13.496;2023-11-22T10:27:47;5.28;;;4.72;;
26696;SDS011;14312;52.614;13.496;2023-11-22T10:30:36;4.97;;;4.47;;
26696;SDS011;14312;52.614;13.496;2023-11-22T10:33:25;4.90;;;4.40;;
26696;SDS011;14312;52.614;13.496;2023-11-22T10:36:12;5.30;;;4.50;;
26696;SDS011;14312;52.614;13.496;2023-11-22T10:39:00;4.38;;;3.97;;
26696;SDS011;14312;52.614;13.496;2023-11-22T10:41:46;5.35;;;4.78;;
26696;SDS011;14312;52.614;13.496;2023-11-22T10:44:35;4.53;;;4.05;;
26696;SDS011;14312;52.614;13.496;2023-11-22T10:47:26;5.45;;;4.45;;
26696;SDS011;14312;52.614;13.496;2023-11-22T10:50:12;4.65;;;4.18;;
26696;SDS011;14312;52.614;13.496;2023-11-22T10:52:58;4.20;;;3.80;;
26696;SDS011;14312;52.614;13.496;2023-11-22T10:55:47;4.90;;;4.40;;
26696;SDS011;14312;52.614;13.496;2023-11-22T10:58:34;4.30;;;3.90;;
26696;SDS011;14312;52.614;13.496;2023-11-22T11:01:21;4.80;;;4.35;;
26696;SDS011;14312;52.614;13.496;2023-11-22T11:04:16;4.60;;;4.10;;
26696;SDS011;14312;52.614;13.496;2023-11-22T11:07:04;4.70;;;4.28;;
26696;SDS011;14312;52.614;13.496;2023-11-22T11:09:55;5.30;;;4.80;;
26696;SDS011;14312;52.614;13.496;2023-11-22T11:12:44;5.75;;;4.97;;
26696;SDS011;14312;52.614;13.496;2023-11-22T11:15:30;4.88;;;4.38;;
26696;SDS011;14312;52.614;13.496;2023-11-22T11:18:17;5.22;;;4.72;;
26696;SDS011;14312;52.614;13.496;2023-11-22T11:21:07;4.90;;;4.40;;
26696;SDS011;14312;52.614;13.496;2023-11-22T11:23:58;4.55;;;4.10;;
26696;SDS011;14312;52.614;13.496;2023-11-22T11:26:48;4.32;;;3.92;;
26696;SDS011;14312;52.614;13.496;2023-11-22T11:29:38;4.60;;;4.03;;
26696;SDS011;14312;52.614;13.496;2023-11-22T11:32:32;4.15;;;3.85;;
26696;SDS011;14312;52.614;13.496;2023-11-22T11:35:18;6.00;;;5.40;;
26696;SDS011;14312;52.614;13.496;2023-11-22T11:38:27;7.78;;;6.80;;
26696;SDS011;14312;52.614;13.496;2023-11-22T11:41:19;7.35;;;6.65;;
26696;SDS011;14312;52.614;13.496;2023-11-22T11:44:14;6.70;;;6.00;;
26696;SDS011;14312;52.614;13.496;2023-11-22T11:47:08;6.20;;;5.60;;
26696;SDS011;14312;52.614;13.496;2023-11-22T11:49:55;6.20;;;5.60;;
26696;SDS011;14312;52.614;13.496;2023-11-22T11:52:41;5.93;;;5.35;;
26696;SDS011;14312;52.614;13.496;2023-11-22T11:55:33;4.70;;;4.30;;
26696;SDS011;14312;52.614;13.496;2023-11-22T11:58:21;7.55;;;5.93;;
26696;SDS011;14312;52.614;13.496;2023-11-22T12:01:09;7.22;;;6.53;;
26696;SDS011;14312;52.614;13.496;2023-11-22T12:03:57;6.57;;;5.55;;
26696;SDS011;14312;52.614;13.496;2023-11-22T12:06:43;5.32;;;4.82;;
26696;SDS011;14312;52.614;13.496;2023-11-22T12:09:29;4.72;;;4.32;;
26696;SDS011;14312;52.614;13.496;2023-11-22T12:12:16;5.30;;;4.80;;
26696;SDS011;14312;52.614;13.496;2023-11-22T12:15:02;5.75;;;5.18;;
26696;SDS011;14312;52.614;13.496;2023-11-22T12:17:48;5.70;;;5.10;;
26696;SDS011;14312;52.614;13.496;2023-11-22T12:20:38;5.43;;;4.93;;
26696;SDS011;14312;52.614;13.496;2023-11-22T12:23:25;6.25;;;5.40;;
26696;SDS011;14312;52.614;13.496;2023-11-22T12:26:14;5.40;;;4.90;;
26696;SDS011;14312;52.614;13.496;2023-11-22T12:29:04;5.18;;;4.68;;
26696;SDS011;14312;52.614;13.496;2023-11-22T12:31:54;4.05;;;3.65;;
26696;SDS011;14312;52.614;13.496;2023-11-22T12:34:43;5.10;;;4.60;;
26696;SDS011;14312;52.614;13.496;2023-11-22T12:37:29;5.25;;;4.57;;
26696;SDS011;14312;52.614;13.496;2023-11-22T12:40:17;5.90;;;5.35;;
26696;SDS011;14312;52.614;13.496;2023-11-22T12:43:05;6.20;;;5.47;;
26696;SDS011;14312;52.614;13.496;2023-11-22T12:48:48;4.55;;;4.15;;
26696;SDS011;14312;52.614;13.496;2023-11-22T12:51:34;4.25;;;3.85;;
26696;SDS011;14312;52.614;13.496;2023-11-22T12:54:21;4.18;;;3.78;;
26696;SDS011;14312;52.614;13.496;2023-11-22T12:57:10;4.00;;;3.70;;
26696;SDS011;14312;52.614;13.496;2023-11-22T12:59:59;4.03;;;3.63;;
26696;SDS011;14312;52.614;13.496;2023-11-22T13:02:45;3.97;;;3.58;;
26696;SDS011;14312;52.614;13.496;2023-11-22T13:05:31;4.18;;;3.72;;
26696;SDS011;14312;52.614;13.496;2023-11-22T13:08:17;4.15;;;3.75;;
26696;SDS011;14312;52.614;13.496;2023-11-22T13:11:04;4.10;;;3.58;;
26696;SDS011;14312;52.614;13.496;2023-11-22T13:13:50;4.53;;;3.70;;
26696;SDS011;14312;52.614;13.496;2023-11-22T13:16:36;4.25;;;3.65;;
26696;SDS011;14312;52.614;13.496;2023-11-22T13:19:24;4.72;;;4.32;;
26696;SDS011;14312;52.614;13.496;2023-11-22T13:22:10;4.13;;;3.72;;
26696;SDS011;14312;52.614;13.496;2023-11-22T13:24:57;3.97;;;3.60;;
26696;SDS011;14312;52.614;13.496;2023-11-22T13:27:48;4.40;;;3.85;;
26696;SDS011;14312;52.614;13.496;2023-11-22T13:30:35;4.20;;;3.80;;
26696;SDS011;14312;52.614;13.496;2023-11-22T13:33:22;4.55;;;3.65;;
26696;SDS011;14312;52.614;13.496;2023-11-22T13:36:08;4.20;;;3.80;;
26696;SDS011;14312;52.614;13.496;2023-11-22T13:38:54;4.30;;;3.90;;
26696;SDS011;14312;52.614;13.496;2023-11-22T13:41:40;4.38;;;3.97;;
26696;SDS011;14312;52.614;13.496;2023-11-22T13:44:26;4.55;;;4.15;;
26696;SDS011;14312;52.614;13.496;2023-11-22T13:47:12;4.78;;;3.95;;
26696;SDS011;14312;52.614;13.496;2023-11-22T13:50:02;5.18;;;4.68;;
26696;SDS011;14312;52.614;13.496;2023-11-22T13:52:49;5.85;;;5.25;;
26696;SDS011;14312;52.614;13.496;2023-11-22T13:55:35;5.25;;;4.72;;
26696;SDS011;14312;52.614;13.496;2023-11-22T13:58:22;5.40;;;4.90;;
26696;SDS011;14312;52.614;13.496;2023-11-22T14:01:09;5.30;;;4.80;;
26696;SDS011;14312;52.614;13.496;2023-11-22T14:04:00;5.15;;;4.55;;
26696;SDS011;14312;52.614;13.496;2023-11-22T14:06:48;6.15;;;4.85;;
26696;SDS011;14312;52.614;13.496;2023-11-22T14:09:34;5.25;;;4.50;;
26696;SDS011;14312;52.614;13.496;2023-11-22T14:12:22;5.28;;;4.68;;
26696;SDS011;14312;52.614;13.496;2023-11-22T14:15:08;7.65;;;5.35;;
26696;SDS011;14312;52.614;13.496;2023-11-22T14:17:56;4.90;;;4.40;;
26696;SDS011;14312;52.614;13.496;2023-11-22T14:20:42;4.95;;;4.38;;
26696;SDS011;14312;52.614;13.496;2023-11-22T14:23:28;6.63;;;5.68;;
26696;SDS011;14312;52.614;13.496;2023-11-22T14:26:14;6.28;;;5.18;;
26696;SDS011;14312;52.614;13.496;2023-11-22T14:29:01;5.63;;;5.03;;
26696;SDS011;14312;52.614;13.496;2023-11-22T14:31:47;5.68;;;5.15;;
26696;SDS011;14312;52.614;13.496;2023-11-22T14:34:33;4.82;;;4.32;;
26696;SDS011;14312;52.614;13.496;2023-11-22T14:37:19;6.75;;;5.03;;
26696;SDS011;14312;52.614;13.496;2023-11-22T14:40:08;8.05;;;5.72;;
26696;SDS011;14312;52.614;13.496;2023-11-22T14:43:06;6.18;;;5.22;;
26696;SDS011;14312;52.614;13.496;2023-11-22T14:45:52;6.55;;;5.03;;
26696;SDS011;14312;52.614;13.496;2023-11-22T14:48:39;6.05;;;5.22;;
26696;SDS011;14312;52.614;13.496;2023-11-22T14:51:23;5.22;;;4.55;;
26696;SDS011;14312;52.614;13.496;2023-11-22T14:54:10;4.70;;;4.20;;
26696;SDS011;14312;52.614;13.496;2023-11-22T14:56:56;5.00;;;4.28;;
26696;SDS011;14312;52.614;13.496;2023-11-22T14:59:47;4.40;;;3.97;;
26696;SDS011;14312;52.614;13.496;2023-11-22T15:02:35;5.15;;;4.47;;
26696;SDS011;14312;52.614;13.496;2023-11-22T15:05:25;4.63;;;4.13;;
26696;SDS011;14312;52.614;13.496;2023-11-22T15:08:13;5.63;;;4.22;;
26696;SDS011;14312;52.614;13.496;2023-11-22T15:11:00;6.07;;;5.40;;
26696;SDS011;14312;52.614;13.496;2023-11-22T15:13:46;7.40;;;5.50;;
26696;SDS011;14312;52.614;13.496;2023-11-22T15:16:32;6.32;;;4.93;;
26696;SDS011;14312;52.614;13.496;2023-11-22T15:19:19;5.80;;;4.93;;
26696;SDS011;14312;52.614;13.496;2023-11-22T15:22:08;6.50;;;5.85;;
26696;SDS011;14312;52.614;13.496;2023-11-22T15:24:54;6.20;;;5.43;;
26696;SDS011;14312;52.614;13.496;2023-11-22T15:27:40;7.32;;;5.78;;
26696;SDS011;14312;52.614;13.496;2023-11-22T15:30:27;8.80;;;6.43;;
26696;SDS011;14312;52.614;13.496;2023-11-22T15:33:15;6.60;;;5.32;;
26696;SDS011;14312;52.614;13.496;2023-11-22T15:36:01;6.05;;;4.82;;
26696;SDS011;14312;52.614;13.496;2023-11-22T15:38:48;5.00;;;4.30;;
26696;SDS011;14312;52.614;13.496;2023-11-22T15:41:34;4.72;;;4.32;;
26696;SDS011;14312;52.614;13.496;2023-11-22T15:44:20;4.07;;;3.65;;
26696;SDS011;14312;52.614;13.496;2023-11-22T15:47:07;4.93;;;3.85;;
26696;SDS011;14312;52.614;13.496;2023-11-22T15:49:54;4.75;;;3.78;;
26696;SDS011;14312;52.614;13.496;2023-11-22T15:52:40;5.63;;;4.38;;
26696;SDS011;14312;52.614;13.496;2023-11-22T15:55:26;4.30;;;3.72;;
26696;SDS011;14312;52.614;13.496;2023-11-22T15:58:12;5.90;;;4.80;;
26696;SDS011;14312;52.614;13.496;2023-11-22T16:01:09;5.30;;;4.68;;
26696;SDS011;14312;52.614;13.496;2023-11-22T16:04:01;5.50;;;4.60;;
26696;SDS011;14312;52.614;13.496;2023-11-22T16:06:51;5.35;;;4.85;;
26696;SDS011;14312;52.614;13.496;2023-11-22T16:09:37;6.35;;;5.15;;
26696;SDS011;14312;52.614;13.496;2023-11-22T16:12:29;7.82;;;5.63;;
26696;SDS011;14312;52.614;13.496;2023-11-22T16:15:18;6.53;;;5.32;;
26696;SDS011;14312;52.614;13.496;2023-11-22T16:18:04;5.80;;;5.18;;
26696;SDS011;14312;52.614;13.496;2023-11-22T16:20:54;6.60;;;5.40;;
26696;SDS011;14312;52.614;13.496;2023-11-22T16:23:41;7.70;;;5.60;;
26696;SDS011;14312;52.614;13.496;2023-11-22T16:26:27;7.28;;;5.85;;
26696;SDS011;14312;52.614;13.496;2023-11-22T16:29:14;5.63;;;4.78;;
26696;SDS011;14312;52.614;13.496;2023-11-22T16:32:01;7.18;;;5.30;;
26696;SDS011;14312;52.614;13.496;2023-11-22T16:34:50;6.22;;;5.25;;
26696;SDS011;14312;52.614;13.496;2023-11-22T16:37:46;5.60;;;4.60;;
26696;SDS011;14312;52.614;13.496;2023-11-22T16:40:33;5.45;;;4.40;;
26696;SDS011;14312;52.614;13.496;2023-11-22T16:43:19;6.75;;;5.35;;
26696;SDS011;14312;52.614;13.496;2023-11-22T16:46:11;6.18;;;5.07;;
26696;SDS011;14312;52.614;13.496;2023-11-22T16:49:05;5.18;;;4.68;;
26696;SDS011;14312;52.614;13.496;2023-11-22T16:51:56;4.15;;;3.75;;
26696;SDS011;14312;52.614;13.496;2023-11-22T16:54:43;6.25;;;4.95;;
26696;SDS011;14312;52.614;13.496;2023-11-22T16:57:30;6.82;;;5.32;;
26696;SDS011;14312;52.614;13.496;2023-11-22T17:00:16;6.85;;;4.80;;
26696;SDS011;14312;52.614;13.496;2023-11-22T17:03:03;5.65;;;5.03;;
26696;SDS011;14312;52.614;13.496;2023-11-22T17:05:51;7.25;;;5.65;;
26696;SDS011;14312;52.614;13.496;2023-11-22T17:08:44;7.47;;;6.47;;
26696;SDS011;14312;52.614;13.496;2023-11-22T17:11:30;7.90;;;5.55;;
26696;SDS011;14312;52.614;13.496;2023-11-22T17:14:16;6.80;;;5.35;;
26696;SDS011;14312;52.614;13.496;2023-11-22T17:17:03;5.93;;;5.32;;
26696;SDS011;14312;52.614;13.496;2023-11-22T17:19:49;7.47;;;6.15;;
26696;SDS011;14312;52.614;13.496;2023-11-22T17:22:35;7.03;;;6.13;;
26696;SDS011;14312;52.614;13.496;2023-11-22T17:25:21;7.25;;;5.80;;
26696;SDS011;14312;52.614;13.496;2023-11-22T17:28:08;7.72;;;6.22;;
26696;SDS011;14312;52.614;13.496;2023-11-22T17:30:55;6.88;;;6.10;;
26696;SDS011;14312;52.614;13.496;2023-11-22T17:33:43;6.60;;;5.53;;
26696;SDS011;14312;52.614;13.496;2023-11-22T17:36:31;6.18;;;4.93;;
26696;SDS011;14312;52.614;13.496;2023-11-22T17:39:17;6.32;;;5.20;;
26696;SDS011;14312;52.614;13.496;2023-11-22T17:42:04;6.00;;;4.90;;
26696;SDS011;14312;52.614;13.496;2023-11-22T17:44:51;7.40;;;5.90;;
26696;SDS011;14312;52.614;13.496;2023-11-22T17:47:37;11.35;;;7.15;;
26696;SDS011;14312;52.614;13.496;2023-11-22T17:50:23;9.73;;;7.07;;
26696;SDS011;14312;52.614;13.496;2023-11-22T17:53:09;7.15;;;6.10;;
26696;SDS011;14312;52.614;13.496;2023-11-22T17:55:56;7.72;;;6.93;;
26696;SDS011;14312;52.614;13.496;2023-11-22T17:58:43;8.57;;;6.68;;
26696;SDS011;14312;52.614;13.496;2023-11-22T18:01:29;7.50;;;5.82;;
26696;SDS011;14312;52.614;13.496;2023-11-22T18:04:17;9.55;;;6.53;;
26696;SDS011;14312;52.614;13.496;2023-11-22T18:07:03;8.63;;;6.45;;
26696;SDS011;14312;52.614;13.496;2023-11-22T18:09:50;10.43;;;6.68;;
26696;SDS011;14312;52.614;13.496;2023-11-22T18:12:38;8.57;;;6.10;;
26696;SDS011;14312;52.614;13.496;2023-11-22T18:15:24;7.72;;;5.80;;
26696;SDS011;14312;52.614;13.496;2023-11-22T18:18:11;7.53;;;6.32;;
26696;SDS011;14312;52.614;13.496;2023-11-22T18:20:57;8.65;;;7.18;;
26696;SDS011;14312;52.614;13.496;2023-11-22T18:23:44;8.93;;;6.38;;
26696;SDS011;14312;52.614;13.496;2023-11-22T18:26:30;7.20;;;6.43;;
26696;SDS011;14312;52.614;13.496;2023-11-22T18:29:16;8.43;;;6.90;;
26696;SDS011;14312;52.614;13.496;2023-11-22T18:32:04;7.25;;;5.50;;
26696;SDS011;14312;52.614;13.496;2023-11-22T18:34:53;8.65;;;6.25;;
26696;SDS011;14312;52.614;13.496;2023-11-22T18:37:41;7.60;;;6.15;;
26696;SDS011;14312;52.614;13.496;2023-11-22T18:40:27;8.32;;;6.30;;
26696;SDS011;14312;52.614;13.496;2023-11-22T18:43:13;10.80;;;7.25;;
26696;SDS011;14312;52.614;13.496;2023-11-22T18:45:59;7.60;;;6.45;;
26696;SDS011;14312;52.614;13.496;2023-11-22T18:48:49;9.05;;;7.70;;
26696;SDS011;14312;52.614;13.496;2023-11-22T18:51:35;11.25;;;7.47;;
26696;SDS011;14312;52.614;13.496;2023-11-22T18:54:22;10.45;;;7.90;;
26696;SDS011;14312;52.614;13.496;2023-11-22T18:57:08;9.95;;;7.80;;
26696;SDS011;14312;52.614;13.496;2023-11-22T18:59:55;11.00;;;8.25;;
26696;SDS011;14312;52.614;13.496;2023-11-22T19:02:41;9.38;;;7.35;;
26696;SDS011;14312;52.614;13.496;2023-11-22T19:05:30;8.98;;;7.40;;
26696;SDS011;14312;52.614;13.496;2023-11-22T19:08:16;10.20;;;7.82;;
26696;SDS011;14312;52.614;13.496;2023-11-22T19:11:02;9.65;;;7.78;;
26696;SDS011;14312;52.614;13.496;2023-11-22T19:13:49;11.80;;;9.00;;
26696;SDS011;14312;52.614;13.496;2023-11-22T19:16:43;13.18;;;9.70;;
26696;SDS011;14312;52.614;13.496;2023-11-22T19:19:30;11.88;;;8.35;;
26696;SDS011;14312;52.614;13.496;2023-11-22T19:22:21;13.70;;;10.13;;
26696;SDS011;14312;52.614;13.496;2023-11-22T19:25:08;12.68;;;9.18;;
26696;SDS011;14312;52.614;13.496;2023-11-22T19:27:56;12.98;;;9.32;;
26696;SDS011;14312;52.614;13.496;2023-11-22T19:30:42;13.15;;;10.43;;
26696;SDS011;14312;52.614;13.496;2023-11-22T19:33:30;12.10;;;9.40;;
26696;SDS011;14312;52.614;13.496;2023-11-22T19:36:24;11.95;;;8.68;;
26696;SDS011;14312;52.614;13.496;2023-11-22T19:39:12;11.77;;;9.45;;
26696;SDS011;14312;52.614;13.496;2023-11-22T19:41:58;11.02;;;8.77;;
26696;SDS011;14312;52.614;13.496;2023-11-22T19:44:44;13.60;;;10.25;;
26696;SDS011;14312;52.614;13.496;2023-11-22T19:47:31;12.40;;;9.48;;
26696;SDS011;14312;52.614;13.496;2023-11-22T19:50:17;11.82;;;9.18;;
26696;SDS011;14312;52.614;13.496;2023-11-22T19:53:05;12.63;;;10.55;;
26696;SDS011;14312;52.614;13.496;2023-11-22T19:55:52;13.10;;;9.38;;
26696;SDS011;14312;52.614;13.496;2023-11-22T19:58:38;13.50;;;9.82;;
26696;SDS011;14312;52.614;13.496;2023-11-22T20:01:26;12.27;;;9.88;;
26696;SDS011;14312;52.614;13.496;2023-11-22T20:04:12;13.40;;;10.63;;
26696;SDS011;14312;52.614;13.496;2023-11-22T20:07:00;15.38;;;11.60;;
26696;SDS011;14312;52.614;13.496;2023-11-22T20:09:46;15.60;;;12.25;;
26696;SDS011;14312;52.614;13.496;2023-11-22T20:12:34;13.23;;;10.25;;
26696;SDS011;14312;52.614;13.496;2023-11-22T20:15:20;14.80;;;10.38;;
26696;SDS011;14312;52.614;13.496;2023-11-22T20:18:06;13.45;;;10.82;;
26696;SDS011;14312;52.614;13.496;2023-11-22T20:20:53;16.13;;;12.35;;
26696;SDS011;14312;52.614;13.496;2023-11-22T20:23:40;16.92;;;12.93;;
26696;SDS011;14312;52.614;13.496;2023-11-22T20:26:26;16.70;;;13.02;;
26696;SDS011;14312;52.614;13.496;2023-11-22T20:29:12;16.83;;;13.50;;
26696;SDS011;14312;52.614;13.496;2023-11-22T20:32:00;17.45;;;12.70;;
26696;SDS011;14312;52.614;13.496;2023-11-22T20:34:47;17.38;;;12.95;;
26696;SDS011;14312;52.614;13.496;2023-11-22T20:37:33;15.85;;;12.80;;
26696;SDS011;14312;52.614;13.496;2023-11-22T20:40:21;12.82;;;11.48;;
26696;SDS011;14312;52.614;13.496;2023-11-22T20:43:08;17.38;;;13.07;;
26696;SDS011;14312;52.614;13.496;2023-11-22T20:45:54;17.23;;;13.15;;
26696;SDS011;14312;52.614;13.496;2023-11-22T20:48:40;15.75;;;13.40;;
26696;SDS011;14312;52.614;13.496;2023-11-22T20:51:27;18.38;;;13.10;;
26696;SDS011;14312;52.614;13.496;2023-11-22T20:54:15;17.92;;;13.52;;
26696;SDS011;14312;52.614;13.496;2023-11-22T20:57:01;16.40;;;12.98;;
26696;SDS011;14312;52.614;13.496;2023-11-22T20:59:47;16.67;;;13.70;;
26696;SDS011;14312;52.614;13.496;2023-11-22T21:02:35;18.00;;;13.75;;
26696;SDS011;14312;52.614;13.496;2023-11-22T21:05:21;16.73;;;13.88;;
26696;SDS011;14312;52.614;13.496;2023-11-22T21:08:07;17.48;;;13.50;;
26696;SDS011;14312;52.614;13.496;2023-11-22T21:10:53;15.05;;;12.93;;
26696;SDS011;14312;52.614;13.496;2023-11-22T21:13:40;17.67;;;13.65;;
26696;SDS011;14312;52.614;13.496;2023-11-22T21:16:26;17.17;;;13.82;;
26696;SDS011;14312;52.614;13.496;2023-11-22T21:19:12;15.70;;;12.70;;
26696;SDS011;14312;52.614;13.496;2023-11-22T21:21:58;15.70;;;13.25;;
26696;SDS011;14312;52.614;13.496;2023-11-22T21:24:45;17.30;;;13.82;;
26696;SDS011;14312;52.614;13.496;2023-11-22T21:27:31;16.77;;;14.15;;
26696;SDS011;14312;52.614;13.496;2023-11-22T21:30:18;20.33;;;14.82;;
26696;SDS011;14312;52.614;13.496;2023-11-22T21:33:04;20.58;;;16.00;;
26696;SDS011;14312;52.614;13.496;2023-11-22T21:35:54;17.42;;;13.90;;
26696;SDS011;14312;52.614;13.496;2023-11-22T21:38:50;18.80;;;13.95;;
26696;SDS011;14312;52.614;13.496;2023-11-22T21:41:45;16.88;;;14.43;;
26696;SDS011;14312;52.614;13.496;2023-11-22T21:44:32;14.32;;;12.13;;
26696;SDS011;14312;52.614;13.496;2023-11-22T21:47:20;17.25;;;13.05;;
26696;SDS011;14312;52.614;13.496;2023-11-22T21:50:07;15.93;;;13.23;;
26696;SDS011;14312;52.614;13.496;2023-11-22T21:52:53;18.35;;;14.23;;
26696;SDS011;14312;52.614;13.496;2023-11-22T21:55:43;18.50;;;15.02;;
